createdAt,value
2023-04-28T00:01:24.584Z,3.78
2023-04-28T00:02:48.754Z,3.38
2023-04-28T00:04:12.893Z,3.92
2023-04-28T00:05:35.637Z,4.32
2023-04-28T00:07:00.458Z,3.83
2023-04-28T00:08:26.988Z,4.25
2023-04-28T00:09:50.417Z,3.78
2023-04-28T00:11:12.960Z,4.10
2023-04-28T00:12:36.449Z,4.22
2023-04-28T00:13:58.906Z,3.63
2023-04-28T00:15:22.546Z,4.43
2023-04-28T00:16:45.112Z,3.80
2023-04-28T00:18:08.676Z,4.05
2023-04-28T00:19:31.200Z,3.97
2023-04-28T00:20:55.148Z,4.28
2023-04-28T00:22:19.390Z,4.00
2023-04-28T00:23:43.624Z,4.18
2023-04-28T00:25:06.891Z,4.88
2023-04-28T00:26:30.331Z,4.05
2023-04-28T00:27:53.704Z,3.72
2023-04-28T00:29:16.125Z,3.97
2023-04-28T00:30:39.940Z,4.22
2023-04-28T00:32:02.472Z,3.90
2023-04-28T00:33:26.033Z,4.20
2023-04-28T00:34:48.508Z,3.58
2023-04-28T00:36:12.342Z,4.68
2023-04-28T00:37:39.425Z,4.60
2023-04-28T00:39:02.896Z,4.53
2023-04-28T00:40:33.412Z,4.30
2023-04-28T00:41:55.974Z,3.80
2023-04-28T00:43:19.476Z,3.97
2023-04-28T00:44:42.068Z,3.80
2023-04-28T00:46:05.680Z,4.07
2023-04-28T00:47:28.416Z,3.92
2023-04-28T00:48:52.096Z,3.50
2023-04-28T00:50:14.585Z,3.58
2023-04-28T00:51:39.216Z,3.03
2023-04-28T00:53:03.326Z,4.13
2023-04-28T00:54:26.773Z,4.22
2023-04-28T00:55:51.483Z,4.03
2023-04-28T00:57:17.744Z,3.20
2023-04-28T00:58:40.365Z,3.28
2023-04-28T01:00:04.289Z,3.53
2023-04-28T01:01:26.985Z,3.17
2023-04-28T01:02:52.436Z,3.55
2023-04-28T01:04:15.352Z,3.20
2023-04-28T01:05:39.178Z,3.35
2023-04-28T01:07:01.846Z,3.30
2023-04-28T01:08:30.853Z,3.40
2023-04-28T01:09:54.340Z,3.50
2023-04-28T01:11:16.835Z,2.97
2023-04-28T01:12:40.316Z,3.13
2023-04-28T01:14:03.620Z,3.38
2023-04-28T01:15:27.860Z,3.42
2023-04-28T01:16:50.349Z,3.28
2023-04-28T01:18:13.860Z,3.78
2023-04-28T01:19:37.757Z,3.03
2023-04-28T01:21:00.317Z,3.25
2023-04-28T01:22:23.730Z,2.75
2023-04-28T01:23:48.326Z,3.53
2023-04-28T01:25:11.901Z,2.97
2023-04-28T01:26:34.357Z,2.75
2023-04-28T01:27:57.867Z,3.10
2023-04-28T01:29:20.403Z,3.30
2023-04-28T01:30:44.660Z,2.58
2023-04-28T01:32:08.103Z,3.15
2023-04-28T01:33:30.674Z,3.75
2023-04-28T01:34:54.014Z,3.40
2023-04-28T01:36:16.970Z,2.88
2023-04-28T01:37:40.434Z,3.15
2023-04-28T01:39:04.643Z,3.50
2023-04-28T01:40:28.059Z,2.72
2023-04-28T01:41:50.481Z,2.92
2023-04-28T01:43:13.860Z,3.40
2023-04-28T01:44:36.248Z,2.78
2023-04-28T01:45:59.749Z,3.22
2023-04-28T01:47:22.280Z,2.38
2023-04-28T01:48:45.727Z,2.83
2023-04-28T01:50:09.737Z,2.53
2023-04-28T01:51:32.787Z,2.67
2023-04-28T01:52:57.074Z,2.78
2023-04-28T01:54:21.094Z,3.28
2023-04-28T01:55:44.489Z,3.00
2023-04-28T01:57:07.950Z,2.45
2023-04-28T01:58:33.285Z,2.60
2023-04-28T01:59:55.707Z,2.45
2023-04-28T02:01:19.226Z,2.83
2023-04-28T02:02:42.818Z,3.05
2023-04-28T02:04:07.134Z,2.78
2023-04-28T02:05:30.825Z,3.70
2023-04-28T02:06:53.283Z,3.10
2023-04-28T02:08:16.726Z,2.88
2023-04-28T02:09:40.542Z,2.97
2023-04-28T02:11:04.236Z,2.85
2023-04-28T02:12:27.740Z,2.85
2023-04-28T02:13:50.800Z,2.70
2023-04-28T02:15:14.229Z,2.97
2023-04-28T02:16:37.661Z,2.83
2023-04-28T02:18:00.120Z,2.60
2023-04-28T02:19:23.614Z,3.10
2023-04-28T02:20:47.050Z,3.13
2023-04-28T02:22:10.592Z,3.58
2023-04-28T02:23:33.990Z,3.88
2023-04-28T02:24:58.134Z,3.42
2023-04-28T02:26:21.582Z,3.30
2023-04-28T02:27:43.996Z,3.10
2023-04-28T02:29:07.485Z,3.67
2023-04-28T02:30:29.919Z,3.28
2023-04-28T02:31:53.634Z,4.03
2023-04-28T02:33:16.256Z,3.67
2023-04-28T02:34:39.671Z,3.58
2023-04-28T02:36:02.133Z,4.05
2023-04-28T02:37:27.031Z,3.63
2023-04-28T02:38:49.416Z,3.25
2023-04-28T02:40:14.989Z,3.42
2023-04-28T02:41:37.476Z,2.90
2023-04-28T02:43:01.029Z,3.75
2023-04-28T02:44:23.642Z,3.22
2023-04-28T02:45:47.036Z,3.22
2023-04-28T02:47:10.521Z,3.05
2023-04-28T02:48:36.740Z,3.50
2023-04-28T02:49:59.200Z,3.92
2023-04-28T02:51:22.568Z,3.38
2023-04-28T02:52:44.995Z,3.38
2023-04-28T02:54:08.881Z,3.30
2023-04-28T02:55:32.706Z,4.07
2023-04-28T02:56:56.199Z,3.38
2023-04-28T02:58:18.855Z,3.47
2023-04-28T02:59:44.097Z,3.60
2023-04-28T03:01:06.899Z,3.72
2023-04-28T03:02:30.530Z,3.15
2023-04-28T03:03:53.273Z,3.33
2023-04-28T03:05:18.692Z,3.17
2023-04-28T03:06:41.444Z,3.47
2023-04-28T03:08:04.979Z,3.70
2023-04-28T03:09:28.456Z,4.10
2023-04-28T03:10:54.038Z,3.08
2023-04-28T03:12:16.449Z,3.17
2023-04-28T03:13:39.890Z,3.45
2023-04-28T03:15:02.413Z,3.30
2023-04-28T03:16:32.817Z,3.30
2023-04-28T03:17:55.489Z,3.22
2023-04-28T03:19:19.110Z,3.33
2023-04-28T03:20:42.549Z,3.92
2023-04-28T03:22:06.064Z,3.25
2023-04-28T03:23:29.458Z,2.80
2023-04-28T03:24:51.890Z,3.03
2023-04-28T03:26:16.686Z,3.33
2023-04-28T03:27:39.189Z,3.33
2023-04-28T03:29:02.647Z,3.22
2023-04-28T03:30:25.066Z,3.30
2023-04-28T03:31:48.624Z,3.53
2023-04-28T03:33:11.252Z,3.35
2023-04-28T03:34:34.774Z,3.30
2023-04-28T03:35:58.187Z,3.00
2023-04-28T03:37:21.583Z,3.55
2023-04-28T03:38:44.435Z,3.25
2023-04-28T03:40:09.213Z,3.25
2023-04-28T03:41:33.052Z,3.05
2023-04-28T03:42:56.535Z,2.97
2023-04-28T03:44:20.893Z,2.70
2023-04-28T03:45:43.406Z,3.50
2023-04-28T03:47:06.794Z,3.63
2023-04-28T03:48:30.745Z,3.30
2023-04-28T03:49:53.309Z,3.60
2023-04-28T03:51:16.764Z,3.95
2023-04-28T03:52:39.457Z,4.05
2023-04-28T03:54:02.814Z,3.50
2023-04-28T03:55:26.158Z,3.28
2023-04-28T03:56:51.026Z,3.03
2023-04-28T03:58:14.432Z,3.05
2023-04-28T03:59:37.028Z,3.40
2023-04-28T04:01:02.741Z,3.15
2023-04-28T04:02:25.408Z,3.03
2023-04-28T04:03:49.107Z,2.88
2023-04-28T04:05:11.942Z,3.97
2023-04-28T04:06:36.047Z,3.30
2023-04-28T04:07:58.597Z,3.20
2023-04-28T04:09:22.021Z,3.40
2023-04-28T04:10:45.447Z,3.25
2023-04-28T04:12:10.543Z,3.80
2023-04-28T04:13:33.181Z,3.13
2023-04-28T04:14:57.152Z,3.03
2023-04-28T04:16:19.658Z,3.70
2023-04-28T04:17:44.009Z,2.90
2023-04-28T04:19:06.427Z,3.90
2023-04-28T04:20:29.847Z,3.42
2023-04-28T04:21:52.411Z,3.58
2023-04-28T04:23:15.915Z,3.63
2023-04-28T04:24:38.396Z,3.70
2023-04-28T04:26:01.839Z,3.13
2023-04-28T04:27:26.950Z,3.25
2023-04-28T04:28:49.386Z,2.92
2023-04-28T04:30:13.506Z,3.38
2023-04-28T04:31:37.659Z,2.80
2023-04-28T04:33:01.170Z,3.20
2023-04-28T04:34:23.770Z,2.88
2023-04-28T04:35:47.177Z,3.28
2023-04-28T04:37:10.318Z,3.33
2023-04-28T04:38:33.778Z,2.88
2023-04-28T04:39:57.361Z,2.97
2023-04-28T04:41:20.741Z,3.00
2023-04-28T04:42:45.657Z,3.00
2023-04-28T04:44:09.221Z,3.53
2023-04-28T04:45:31.732Z,3.47
2023-04-28T04:46:55.144Z,3.72
2023-04-28T04:48:18.112Z,3.63
2023-04-28T04:49:41.649Z,3.67
2023-04-28T04:51:06.102Z,3.65
2023-04-28T04:52:29.031Z,4.15
2023-04-28T04:53:52.416Z,3.00
2023-04-28T04:55:14.842Z,3.22
2023-04-28T04:56:40.042Z,3.15
2023-04-28T04:58:04.893Z,3.80
2023-04-28T04:59:28.166Z,3.67
2023-04-28T05:00:51.715Z,3.83
2023-04-28T05:02:15.958Z,3.45
2023-04-28T05:03:39.602Z,3.47
2023-04-28T05:05:16.728Z,3.20
2023-04-28T05:06:45.005Z,3.45
2023-04-28T05:08:08.471Z,3.42
2023-04-28T05:09:33.063Z,3.10
2023-04-28T05:10:56.506Z,3.15
2023-04-28T05:12:19.013Z,3.10
2023-04-28T05:13:43.784Z,3.60
2023-04-28T05:15:08.221Z,3.28
2023-04-28T05:16:31.779Z,3.28
2023-04-28T05:17:55.430Z,3.28
2023-04-28T05:19:18.075Z,2.80
2023-04-28T05:20:41.629Z,3.05
2023-04-28T05:22:05.061Z,3.55
2023-04-28T05:23:28.453Z,3.80
2023-04-28T05:24:52.708Z,2.97
2023-04-28T05:26:15.388Z,3.50
2023-04-28T05:27:40.749Z,3.40
2023-04-28T05:29:06.182Z,3.03
2023-04-28T05:30:28.702Z,3.65
2023-04-28T05:31:52.127Z,3.40
2023-04-28T05:33:15.660Z,2.70
2023-04-28T05:34:39.053Z,3.40
2023-04-28T05:36:02.636Z,2.97
2023-04-28T05:37:26.040Z,3.35
2023-04-28T05:38:49.715Z,3.08
2023-04-28T05:40:12.356Z,2.85
2023-04-28T05:41:37.305Z,3.38
2023-04-28T05:43:01.092Z,2.88
2023-04-28T05:44:26.310Z,3.55
2023-04-28T05:45:49.852Z,3.05
2023-04-28T05:47:13.454Z,2.80
2023-04-28T05:48:36.900Z,3.28
2023-04-28T05:50:00.405Z,3.60
2023-04-28T05:51:23.875Z,2.50
2023-04-28T05:52:47.357Z,3.53
2023-04-28T05:54:09.807Z,3.80
2023-04-28T05:55:40.538Z,2.92
2023-04-28T05:57:04.859Z,3.13
2023-04-28T05:58:28.254Z,3.60
2023-04-28T05:59:53.236Z,4.07
2023-04-28T06:01:18.756Z,2.67
2023-04-28T06:02:42.380Z,3.50
2023-04-28T06:04:07.147Z,3.00
2023-04-28T06:05:31.199Z,3.05
2023-04-28T06:06:53.870Z,3.15
2023-04-28T06:08:17.496Z,2.25
2023-04-28T06:09:41.158Z,3.15
2023-04-28T06:11:04.699Z,3.03
2023-04-28T06:12:28.156Z,3.08
2023-04-28T06:13:52.140Z,2.80
2023-04-28T06:15:16.285Z,3.03
2023-04-28T06:16:40.068Z,3.42
2023-04-28T06:18:02.636Z,3.30
2023-04-28T06:19:26.167Z,2.72
2023-04-28T06:20:48.729Z,2.80
2023-04-28T06:22:12.086Z,3.17
2023-04-28T06:23:36.076Z,2.72
2023-04-28T06:24:59.521Z,2.80
2023-04-28T06:26:22.037Z,2.85
2023-04-28T06:27:46.135Z,2.85
2023-04-28T06:29:09.649Z,2.33
2023-04-28T06:30:33.623Z,3.05
2023-04-28T06:31:58.583Z,2.78
2023-04-28T06:33:22.114Z,3.10
2023-04-28T06:34:44.600Z,2.55
2023-04-28T06:36:08.895Z,3.65
2023-04-28T06:37:31.613Z,2.95
2023-04-28T06:38:55.149Z,2.58
2023-04-28T06:40:19.013Z,2.63
2023-04-28T06:41:42.527Z,3.17
2023-04-28T06:43:06.115Z,2.80
2023-04-28T06:44:29.602Z,2.58
2023-04-28T06:45:54.568Z,2.88
2023-04-28T06:47:18.137Z,2.58
2023-04-28T06:48:41.798Z,3.05
2023-04-28T06:50:05.718Z,3.33
2023-04-28T06:51:29.708Z,2.92
2023-04-28T06:52:54.858Z,2.75
2023-04-28T06:54:19.076Z,2.67
2023-04-28T06:55:43.190Z,2.67
2023-04-28T06:57:06.720Z,2.78
2023-04-28T06:58:30.493Z,3.13
2023-04-28T06:59:54.063Z,2.85
2023-04-28T07:01:19.054Z,2.70
2023-04-28T07:02:42.731Z,2.55
2023-04-28T07:04:06.613Z,3.25
2023-04-28T07:05:32.565Z,2.67
2023-04-28T07:06:56.355Z,3.13
2023-04-28T07:08:19.786Z,3.30
2023-04-28T07:09:43.214Z,3.60
2023-04-28T07:11:07.720Z,2.83
2023-04-28T07:12:31.212Z,2.95
2023-04-28T07:13:53.656Z,2.63
2023-04-28T07:15:17.161Z,3.08
2023-04-28T07:16:42.232Z,2.50
2023-04-28T07:18:05.945Z,3.00
2023-04-28T07:19:29.500Z,3.13
2023-04-28T07:20:53.081Z,2.72
2023-04-28T07:22:16.488Z,3.00
2023-04-28T07:23:40.917Z,3.08
2023-04-28T07:25:03.524Z,3.05
2023-04-28T07:26:27.034Z,3.00
2023-04-28T07:27:50.591Z,2.97
2023-04-28T07:29:14.979Z,2.65
2023-04-28T07:30:38.350Z,3.33
2023-04-28T07:32:07.287Z,2.38
2023-04-28T07:33:31.206Z,2.95
2023-04-28T07:34:54.720Z,2.65
2023-04-28T07:36:18.339Z,2.45
2023-04-28T07:37:41.856Z,2.10
2023-04-28T07:39:06.286Z,3.05
2023-04-28T07:40:29.805Z,2.40
2023-04-28T07:41:53.293Z,1.83
2023-04-28T07:43:17.146Z,2.75
2023-04-28T07:44:41.558Z,3.20
2023-04-28T07:46:05.128Z,2.63
2023-04-28T07:47:30.001Z,2.50
2023-04-28T07:48:55.933Z,3.03
2023-04-28T07:50:19.523Z,2.85
2023-04-28T07:51:42.943Z,2.78
2023-04-28T07:53:06.446Z,2.13
2023-04-28T07:54:29.944Z,3.55
2023-04-28T07:55:53.629Z,2.47
2023-04-28T07:57:17.140Z,2.95
2023-04-28T07:58:40.520Z,2.80
2023-04-28T08:00:05.477Z,2.72
2023-04-28T08:01:32.992Z,2.30
2023-04-28T08:02:58.111Z,2.50
2023-04-28T08:04:22.020Z,2.53
2023-04-28T08:05:46.058Z,3.08
2023-04-28T08:07:12.129Z,2.95
2023-04-28T08:08:35.970Z,3.00
2023-04-28T08:09:59.566Z,2.70
2023-04-28T08:11:24.245Z,2.72
2023-04-28T08:12:47.804Z,2.22
2023-04-28T08:14:11.199Z,2.40
2023-04-28T08:15:33.673Z,2.70
2023-04-28T08:16:57.665Z,2.63
2023-04-28T08:18:22.590Z,2.60
2023-04-28T08:19:46.447Z,2.85
2023-04-28T08:21:10.046Z,3.00
2023-04-28T08:22:33.585Z,2.40
2023-04-28T08:23:57.097Z,2.55
2023-04-28T08:25:20.633Z,2.88
2023-04-28T08:26:44.067Z,2.45
2023-04-28T08:28:10.131Z,3.17
2023-04-28T08:29:34.556Z,2.97
2023-04-28T08:30:58.574Z,2.38
2023-04-28T08:32:21.992Z,2.50
2023-04-28T08:33:50.068Z,2.53
2023-04-28T08:35:15.603Z,2.63
2023-04-28T08:36:39.133Z,2.60
2023-04-28T08:38:01.621Z,2.65
2023-04-28T08:39:26.483Z,2.50
2023-04-28T08:40:54.236Z,2.75
2023-04-28T08:42:19.221Z,2.53
2023-04-28T08:43:43.324Z,2.55
2023-04-28T08:45:07.951Z,2.60
2023-04-28T08:46:33.859Z,2.80
2023-04-28T08:47:59.753Z,2.60
2023-04-28T08:49:27.945Z,2.60
2023-04-28T08:50:53.360Z,2.85
2023-04-28T08:52:19.957Z,2.78
2023-04-28T08:54:11.731Z,2.63
2023-04-28T08:55:29.937Z,2.53
2023-04-28T08:56:53.910Z,3.00
2023-04-28T08:58:17.434Z,2.90
2023-04-28T08:59:41.759Z,3.08
2023-04-28T09:01:05.742Z,2.85
2023-04-28T09:02:30.347Z,3.03
2023-04-28T09:03:56.356Z,3.25
2023-04-28T09:05:21.748Z,3.03
2023-04-28T09:06:45.485Z,3.10
2023-04-28T09:08:09.187Z,3.17
2023-04-28T09:09:35.705Z,3.05
2023-04-28T09:11:13.392Z,3.63
2023-04-28T09:12:38.705Z,3.17
2023-04-28T09:14:14.006Z,3.58
2023-04-28T09:15:41.034Z,3.63
2023-04-28T09:17:06.090Z,3.53
2023-04-28T09:18:29.943Z,3.40
2023-04-28T09:19:53.377Z,3.25
2023-04-28T09:21:18.575Z,3.15
2023-04-28T09:22:42.256Z,3.50
2023-04-28T09:24:06.131Z,3.83
2023-04-28T09:25:29.601Z,3.65
2023-04-28T09:26:53.504Z,4.13
2023-04-28T09:28:22.870Z,3.63
2023-04-28T09:29:54.592Z,4.45
2023-04-28T09:31:25.325Z,3.47
2023-04-28T09:33:07.082Z,2.58
2023-04-28T09:34:45.582Z,3.83
2023-04-28T09:36:11.798Z,3.53
2023-04-28T09:37:37.758Z,3.20
2023-04-28T09:39:01.119Z,3.15
2023-04-28T09:40:24.650Z,3.33
2023-04-28T09:41:48.873Z,3.65
2023-04-28T09:43:28.318Z,3.50
2023-04-28T09:44:54.262Z,3.42
2023-04-28T09:46:30.497Z,3.65
2023-04-28T09:47:54.073Z,3.58
2023-04-28T09:49:17.506Z,3.35
2023-04-28T09:50:42.155Z,3.63
2023-04-28T09:52:14.248Z,3.85
2023-04-28T09:53:39.140Z,3.40
2023-04-28T09:55:04.572Z,3.72
2023-04-28T09:56:31.304Z,3.40
2023-04-28T09:57:56.716Z,3.67
2023-04-28T09:59:20.185Z,3.13
2023-04-28T10:00:43.128Z,3.83
2023-04-28T10:02:22.593Z,3.53
2023-04-28T10:03:53.279Z,3.80
2023-04-28T10:05:18.556Z,3.30
2023-04-28T10:06:42.154Z,3.50
2023-04-28T10:08:06.267Z,4.10
2023-04-28T10:09:31.178Z,3.75
2023-04-28T10:10:54.786Z,3.92
2023-04-28T10:12:18.969Z,4.47
2023-04-28T10:13:43.913Z,3.50
2023-04-28T10:15:08.679Z,4.10
2023-04-28T10:16:32.477Z,3.30
2023-04-28T10:17:56.420Z,3.10
2023-04-28T10:19:20.387Z,3.47
2023-04-28T10:20:47.079Z,3.83
2023-04-28T10:22:28.331Z,3.53
2023-04-28T10:24:03.516Z,3.70
2023-04-28T10:25:29.930Z,3.10
2023-04-28T10:27:09.122Z,2.28
2023-04-28T10:28:32.663Z,3.28
2023-04-28T10:29:56.157Z,3.90
2023-04-28T10:31:23.547Z,2.80
2023-04-28T10:32:47.229Z,3.33
2023-04-28T10:34:23.461Z,2.83
2023-04-28T10:35:48.496Z,3.42
2023-04-28T10:37:15.016Z,3.03
2023-04-28T10:39:10.995Z,3.53
2023-04-28T10:40:36.499Z,3.97
2023-04-28T10:42:00.025Z,3.25
2023-04-28T10:43:41.832Z,3.00
2023-04-28T10:45:05.004Z,3.05
2023-04-28T10:47:07.010Z,3.92
2023-04-28T10:48:55.413Z,3.33
2023-04-28T10:50:21.916Z,3.53
2023-04-28T10:51:47.526Z,4.07
2023-04-28T10:53:09.946Z,4.20
2023-04-28T10:54:33.390Z,3.58
2023-04-28T10:56:07.768Z,3.42
2023-04-28T10:57:31.283Z,3.53
2023-04-28T10:58:54.203Z,3.10
2023-04-28T11:00:32.301Z,4.20
2023-04-28T11:01:55.897Z,4.22
2023-04-28T11:03:47.761Z,3.78
2023-04-28T11:05:20.887Z,3.30
2023-04-28T11:06:46.616Z,3.42
2023-04-28T11:08:33.729Z,3.53
2023-04-28T11:09:57.200Z,4.13
2023-04-28T11:11:24.319Z,3.72
2023-04-28T11:13:23.460Z,4.00
2023-04-28T11:14:47.049Z,4.32
2023-04-28T11:16:09.929Z,3.60
2023-04-28T11:17:41.826Z,3.63
2023-04-28T11:19:05.642Z,3.97
2023-04-28T11:20:29.837Z,4.00
2023-04-28T11:21:54.989Z,3.90
2023-04-28T11:23:24.426Z,3.92
2023-04-28T11:24:58.353Z,4.18
2023-04-28T11:26:23.698Z,3.95
2023-04-28T11:27:48.608Z,3.53
2023-04-28T11:29:12.748Z,4.45
2023-04-28T11:30:36.533Z,4.53
2023-04-28T11:32:00.169Z,3.63
2023-04-28T11:33:23.779Z,3.67
2023-04-28T11:34:53.672Z,4.35
2023-04-28T11:36:31.855Z,4.45
2023-04-28T11:38:04.971Z,3.65
2023-04-28T11:39:29.740Z,4.00
2023-04-28T11:40:58.646Z,3.70
2023-04-28T11:42:25.894Z,3.60
2023-04-28T11:43:51.038Z,4.15
2023-04-28T11:45:14.734Z,4.05
2023-04-28T11:46:37.435Z,4.22
2023-04-28T11:48:06.356Z,3.80
2023-04-28T11:49:31.549Z,4.45
2023-04-28T11:50:54.987Z,4.20
2023-04-28T11:52:18.513Z,4.45
2023-04-28T11:53:44.392Z,3.72
2023-04-28T11:55:10.024Z,3.92
2023-04-28T11:56:34.952Z,3.88
2023-04-28T11:58:23.604Z,3.72
2023-04-28T11:59:47.853Z,4.28
2023-04-28T12:01:12.620Z,3.70
2023-04-28T12:02:37.079Z,3.95
2023-04-28T12:04:00.138Z,3.83
2023-04-28T12:05:23.824Z,4.07
2023-04-28T12:06:47.379Z,3.80
2023-04-28T12:08:10.849Z,3.78
2023-04-28T12:09:34.893Z,4.28
2023-04-28T12:11:11.811Z,3.80
2023-04-28T12:12:49.912Z,3.88
2023-04-28T12:14:17.254Z,4.50
2023-04-28T12:15:43.518Z,4.10
2023-04-28T12:17:08.192Z,3.70
2023-04-28T12:18:30.999Z,4.22
2023-04-28T12:19:54.607Z,3.67
2023-04-28T12:21:23.245Z,3.95
2023-04-28T12:22:49.508Z,4.43
2023-04-28T12:24:20.548Z,4.07
2023-04-28T12:25:47.895Z,4.05
2023-04-28T12:27:18.582Z,4.28
2023-04-28T12:28:43.006Z,3.60
2023-04-28T12:30:26.400Z,3.78
2023-04-28T12:31:50.326Z,4.07
2023-04-28T12:33:26.927Z,3.35
2023-04-28T12:34:51.436Z,4.03
2023-04-28T12:36:16.271Z,4.30
2023-04-28T12:37:41.287Z,4.03
2023-04-28T12:39:05.000Z,3.15
2023-04-28T12:40:31.281Z,3.80
2023-04-28T12:41:55.060Z,2.85
2023-04-28T12:43:18.751Z,3.50
2023-04-28T12:44:42.126Z,3.67
2023-04-28T12:46:08.513Z,3.67
2023-04-28T12:47:32.119Z,4.60
2023-04-28T12:48:54.595Z,4.93
2023-04-28T12:50:18.149Z,3.80
2023-04-28T12:51:41.852Z,3.70
2023-04-28T12:53:06.302Z,4.35
2023-04-28T12:54:29.718Z,4.15
2023-04-28T12:55:53.365Z,3.97
2023-04-28T12:57:17.469Z,3.67
2023-04-28T12:58:41.102Z,3.72
2023-04-28T13:00:06.172Z,3.90
2023-04-28T13:01:30.430Z,3.78
2023-04-28T13:02:54.145Z,3.55
2023-04-28T13:04:18.440Z,3.35
2023-04-28T13:05:42.066Z,3.17
2023-04-28T13:07:07.274Z,4.13
2023-04-28T13:08:33.974Z,3.58
2023-04-28T13:09:58.154Z,4.18
2023-04-28T13:11:23.417Z,3.90
2023-04-28T13:12:46.854Z,3.72
2023-04-28T13:14:09.723Z,3.45
2023-04-28T13:15:33.350Z,3.83
2023-04-28T13:16:58.871Z,3.00
2023-04-28T13:18:23.527Z,3.38
2023-04-28T13:19:49.065Z,3.28
2023-04-28T13:21:12.755Z,3.25
2023-04-28T13:22:36.411Z,3.47
2023-04-28T13:23:59.933Z,3.70
2023-04-28T13:25:23.520Z,3.58
2023-04-28T13:26:47.321Z,3.50
2023-04-28T13:28:10.735Z,3.70
2023-04-28T13:29:34.221Z,2.97
2023-04-28T13:30:56.712Z,3.50
2023-04-28T13:32:21.531Z,3.35
2023-04-28T13:33:44.945Z,3.33
2023-04-28T13:35:09.941Z,3.38
2023-04-28T13:36:34.073Z,3.80
2023-04-28T13:38:01.850Z,3.63
2023-04-28T13:39:25.441Z,3.70
2023-04-28T13:40:48.044Z,3.72
2023-04-28T13:42:13.160Z,3.65
2023-04-28T13:43:36.692Z,3.60
2023-04-28T13:45:00.137Z,4.25
2023-04-28T13:46:23.784Z,4.10
2023-04-28T13:47:49.651Z,3.58
2023-04-28T13:49:13.204Z,3.85
2023-04-28T13:50:38.940Z,3.67
2023-04-28T13:52:03.577Z,3.83
2023-04-28T13:53:30.345Z,3.47
2023-04-28T13:54:53.779Z,3.40
2023-04-28T13:56:17.224Z,3.67
2023-04-28T13:57:40.123Z,4.07
2023-04-28T13:59:03.832Z,3.78
2023-04-28T14:00:27.236Z,3.47
2023-04-28T14:01:50.774Z,3.53
2023-04-28T14:03:15.861Z,4.22
2023-04-28T14:04:39.883Z,4.43
2023-04-28T14:06:04.299Z,3.78
2023-04-28T14:07:28.270Z,4.38
2023-04-28T14:08:51.890Z,4.07
2023-04-28T14:10:15.395Z,3.55
2023-04-28T14:11:38.862Z,3.63
2023-04-28T14:13:02.347Z,3.70
2023-04-28T14:14:26.344Z,3.55
2023-04-28T14:15:58.524Z,3.80
2023-04-28T14:17:22.842Z,4.68
2023-04-28T14:18:47.810Z,3.88
2023-04-28T14:20:12.180Z,4.30
2023-04-28T14:21:35.741Z,3.42
2023-04-28T14:22:58.577Z,3.45
2023-04-28T14:24:22.369Z,3.97
2023-04-28T14:25:45.840Z,3.72
2023-04-28T14:27:10.963Z,4.10
2023-04-28T14:28:34.444Z,3.58
2023-04-28T14:30:00.328Z,3.40
2023-04-28T14:31:23.997Z,4.22
2023-04-28T14:32:47.613Z,3.05
2023-04-28T14:34:12.679Z,4.10
2023-04-28T14:35:36.441Z,3.53
2023-04-28T14:37:00.016Z,3.78
2023-04-28T14:38:23.829Z,3.85
2023-04-28T14:39:47.255Z,3.72
2023-04-28T14:41:11.595Z,3.60
2023-04-28T14:42:37.135Z,3.50
2023-04-28T14:44:00.778Z,3.95
2023-04-28T14:45:24.485Z,3.53
2023-04-28T14:46:48.817Z,4.28
2023-04-28T14:48:13.385Z,3.78
2023-04-28T14:49:38.375Z,4.03
2023-04-28T14:51:02.388Z,4.03
2023-04-28T14:52:27.669Z,3.85
2023-04-28T14:53:51.285Z,3.70
2023-04-28T14:55:14.881Z,4.28
2023-04-28T14:56:38.400Z,3.75
2023-04-28T14:58:02.929Z,3.70
2023-04-28T14:59:28.242Z,3.95
2023-04-28T15:00:53.150Z,3.33
2023-04-28T15:02:16.067Z,3.35
2023-04-28T15:03:39.789Z,4.50
2023-04-28T15:05:05.914Z,4.28
2023-04-28T15:06:29.550Z,4.05
2023-04-28T15:07:53.083Z,3.83
2023-04-28T15:09:16.543Z,3.65
2023-04-28T15:10:43.179Z,4.22
2023-04-28T15:12:06.988Z,3.95
2023-04-28T15:13:30.473Z,4.03
2023-04-28T15:14:54.214Z,4.47
2023-04-28T15:16:17.868Z,3.85
2023-04-28T15:17:43.607Z,4.10
2023-04-28T15:19:07.316Z,4.13
2023-04-28T15:20:34.147Z,4.90
2023-04-28T15:21:57.736Z,4.57
2023-04-28T15:23:21.914Z,6.50
2023-04-28T15:24:45.642Z,5.72
2023-04-28T15:26:10.787Z,4.78
2023-04-28T15:27:34.283Z,4.78
2023-04-28T15:29:01.300Z,4.40
2023-04-28T15:30:24.822Z,4.88
2023-04-28T15:31:48.247Z,4.68
2023-04-28T15:33:17.086Z,5.20
2023-04-28T15:34:43.204Z,4.78
2023-04-28T15:36:08.925Z,4.80
2023-04-28T15:37:47.331Z,4.35
2023-04-28T15:39:11.075Z,5.00
2023-04-28T15:40:35.485Z,3.70
2023-04-28T15:41:59.534Z,5.18
2023-04-28T15:43:22.989Z,5.30
2023-04-28T15:44:46.862Z,4.28
2023-04-28T15:46:11.267Z,4.60
2023-04-28T15:47:34.946Z,4.45
2023-04-28T15:48:58.020Z,4.72
2023-04-28T15:50:22.282Z,4.63
2023-04-28T15:51:49.699Z,5.07
2023-04-28T15:53:13.132Z,4.68
2023-04-28T15:54:37.198Z,6.65
2023-04-28T15:56:00.888Z,5.88
2023-04-28T15:57:24.586Z,4.32
2023-04-28T15:58:48.630Z,5.13
2023-04-28T16:00:14.888Z,5.15
2023-04-28T16:01:38.542Z,4.85
2023-04-28T16:03:02.209Z,4.95
2023-04-28T16:04:25.897Z,4.40
2023-04-28T16:05:49.437Z,4.72
2023-04-28T16:07:13.317Z,5.15
2023-04-28T16:08:36.882Z,4.90
2023-04-28T16:10:00.620Z,5.13
2023-04-28T16:11:24.321Z,5.30
2023-04-28T16:12:47.873Z,4.93
2023-04-28T16:14:12.039Z,5.22
2023-04-28T16:15:35.541Z,4.95
2023-04-28T16:16:59.154Z,4.78
2023-04-28T16:18:22.662Z,4.65
2023-04-28T16:19:46.148Z,4.75
2023-04-28T16:21:09.703Z,4.78
2023-04-28T16:22:34.989Z,4.80
2023-04-28T16:23:58.562Z,5.25
2023-04-28T16:25:22.842Z,4.82
2023-04-28T16:26:47.064Z,5.22
2023-04-28T16:28:10.602Z,4.68
2023-04-28T16:29:34.096Z,5.00
2023-04-28T16:30:58.747Z,4.95
2023-04-28T16:32:22.190Z,5.05
2023-04-28T16:33:45.684Z,4.70
2023-04-28T16:35:14.819Z,5.32
2023-04-28T16:36:40.132Z,5.50
2023-04-28T16:38:13.386Z,6.43
2023-04-28T16:39:37.153Z,5.30
2023-04-28T16:41:00.540Z,5.30
2023-04-28T16:42:26.479Z,5.35
2023-04-28T16:43:49.862Z,5.60
2023-04-28T16:45:13.748Z,5.07
2023-04-28T16:46:37.331Z,5.32
2023-04-28T16:48:01.883Z,5.43
2023-04-28T16:49:25.595Z,5.75
2023-04-28T16:50:49.057Z,5.38
2023-04-28T16:52:12.460Z,5.53
2023-04-28T16:53:38.891Z,5.43
2023-04-28T16:55:01.308Z,5.20
2023-04-28T16:56:24.799Z,5.05
2023-04-28T16:57:48.292Z,5.35
2023-04-28T16:59:15.000Z,5.35
2023-04-28T17:00:40.113Z,5.93
2023-04-28T17:02:04.940Z,6.05
2023-04-28T17:03:28.536Z,5.13
2023-04-28T17:04:53.080Z,5.05
2023-04-28T17:06:17.837Z,4.78
2023-04-28T17:07:41.505Z,5.18
2023-04-28T17:09:05.440Z,5.40
2023-04-28T17:10:29.056Z,5.70
2023-04-28T17:11:52.871Z,6.03
2023-04-28T17:13:16.341Z,5.35
2023-04-28T17:14:39.198Z,5.35
2023-04-28T17:16:03.156Z,5.15
2023-04-28T17:17:27.209Z,5.72
2023-04-28T17:18:52.814Z,4.85
2023-04-28T17:20:19.944Z,4.95
2023-04-28T17:21:43.520Z,5.72
2023-04-28T17:23:07.038Z,5.57
2023-04-28T17:24:31.960Z,5.68
2023-04-28T17:25:56.023Z,6.05
2023-04-28T17:27:19.532Z,5.57
2023-04-28T17:28:43.949Z,5.43
2023-04-28T17:30:10.258Z,5.22
2023-04-28T17:31:33.821Z,5.03
2023-04-28T17:32:59.530Z,5.88
2023-04-28T17:34:22.968Z,5.57
2023-04-28T17:35:46.605Z,5.45
2023-04-28T17:37:10.103Z,5.78
2023-04-28T17:38:33.009Z,5.90
2023-04-28T17:39:58.387Z,6.38
2023-04-28T17:41:22.770Z,5.80
2023-04-28T17:42:46.192Z,5.78
2023-04-28T17:44:09.696Z,5.60
2023-04-28T17:45:33.300Z,5.75
2023-04-28T17:46:56.872Z,5.88
2023-04-28T17:48:24.044Z,6.65
2023-04-28T17:49:49.175Z,6.85
2023-04-28T17:51:14.699Z,5.32
2023-04-28T17:52:43.449Z,6.22
2023-04-28T17:54:09.712Z,6.45
2023-04-28T17:55:35.251Z,6.43
2023-04-28T17:57:17.941Z,6.07
2023-04-28T17:58:42.672Z,6.25
2023-04-28T18:00:07.120Z,6.25
2023-04-28T18:01:30.859Z,6.38
2023-04-28T18:02:55.208Z,7.05
2023-04-28T18:04:18.764Z,6.82
2023-04-28T18:05:42.272Z,7.15
2023-04-28T18:07:06.430Z,6.80
2023-04-28T18:08:32.158Z,5.72
2023-04-28T18:09:57.168Z,6.43
2023-04-28T18:11:23.375Z,6.55
2023-04-28T18:12:47.988Z,5.97
2023-04-28T18:14:11.528Z,6.13
2023-04-28T18:15:35.063Z,6.05
2023-04-28T18:16:58.773Z,6.10
2023-04-28T18:18:22.474Z,6.60
2023-04-28T18:19:45.998Z,5.88
2023-04-28T18:21:09.949Z,6.18
2023-04-28T18:22:33.510Z,6.55
2023-04-28T18:23:57.013Z,6.15
2023-04-28T18:25:20.567Z,6.65
2023-04-28T18:26:45.374Z,5.68
2023-04-28T18:28:10.390Z,5.72
2023-04-28T18:29:34.588Z,6.30
2023-04-28T18:30:56.942Z,6.00
2023-04-28T18:32:20.506Z,5.65
2023-04-28T18:33:45.022Z,6.28
2023-04-28T18:35:09.665Z,5.85
2023-04-28T18:36:34.819Z,5.47
2023-04-28T18:38:00.891Z,6.85
2023-04-28T18:39:24.501Z,5.85
2023-04-28T18:40:47.923Z,6.38
2023-04-28T18:42:13.249Z,5.93
2023-04-28T18:43:37.183Z,6.00
2023-04-28T18:45:00.645Z,5.28
2023-04-28T18:46:24.366Z,5.07
2023-04-28T18:47:48.055Z,6.25
2023-04-28T18:49:12.699Z,5.38
2023-04-28T18:50:36.396Z,6.28